LIPC

Cervia Air Force Base Airport

Cervia, Italy
TAF LIPC 221400Z 2215/2224 10010KT 9999 FEW060
Issued Valid From Valid To
Sep-22 @ 14:00 UTC
(an hour ago)
Sep-22 @ 15:00 UTC
(a minute ago)
Sep-23 @ 00:00 UTC
(in 9 hours)
to
TAF LIPC 221400Z 2215/2224 10010KT 9999 FEW060
Issued Sep-22 @ 14:00 UTC
(an hour ago)
Valid From Sep-22 @ 15:00 UTC
(a minute ago)
Valid To Sep-23 @ 00:00 UTC
(in 9 hours)
-